sensor_id;sensor_type;location;lat;lon;timestamp;P1;durP1;ratioP1;P2;durP2;ratioP2
67041;SDS011;53949;47.790;18.750;2022-11-20T00:02:40;22.15;;;9.98;;
67041;SDS011;53949;47.790;18.750;2022-11-20T00:05:44;23.83;;;10.30;;
67041;SDS011;53949;47.790;18.750;2022-11-20T00:08:47;23.25;;;9.68;;
67041;SDS011;53949;47.790;18.750;2022-11-20T00:11:50;21.02;;;9.55;;
67041;SDS011;53949;47.790;18.750;2022-11-20T00:14:53;18.25;;;8.80;;
67041;SDS011;53949;47.790;18.750;2022-11-20T00:17:57;26.83;;;10.30;;
67041;SDS011;53949;47.790;18.750;2022-11-20T00:21:01;24.33;;;9.70;;
67041;SDS011;53949;47.790;18.750;2022-11-20T00:24:08;22.87;;;10.23;;
67041;SDS011;53949;47.790;18.750;2022-11-20T00:27:12;23.87;;;10.10;;
67041;SDS011;53949;47.790;18.750;2022-11-20T00:30:17;27.10;;;11.02;;
67041;SDS011;53949;47.790;18.750;2022-11-20T00:33:20;26.98;;;11.38;;
67041;SDS011;53949;47.790;18.750;2022-11-20T00:36:25;25.23;;;11.23;;
67041;SDS011;53949;47.790;18.750;2022-11-20T00:39:30;24.98;;;11.10;;
67041;SDS011;53949;47.790;18.750;2022-11-20T00:42:34;26.10;;;10.38;;
67041;SDS011;53949;47.790;18.750;2022-11-20T00:45:37;22.58;;;10.40;;
67041;SDS011;53949;47.790;18.750;2022-11-20T00:48:41;29.45;;;11.98;;
67041;SDS011;53949;47.790;18.750;2022-11-20T00:51:44;31.35;;;12.07;;
67041;SDS011;53949;47.790;18.750;2022-11-20T00:54:47;30.70;;;11.63;;
67041;SDS011;53949;47.790;18.750;2022-11-20T00:57:50;28.42;;;11.93;;
67041;SDS011;53949;47.790;18.750;2022-11-20T01:00:53;28.25;;;11.30;;
67041;SDS011;53949;47.790;18.750;2022-11-20T01:04:03;28.35;;;11.80;;
67041;SDS011;53949;47.790;18.750;2022-11-20T01:07:07;32.75;;;11.52;;
67041;SDS011;53949;47.790;18.750;2022-11-20T01:10:10;30.50;;;11.20;;
67041;SDS011;53949;47.790;18.750;2022-11-20T01:13:13;27.55;;;12.02;;
67041;SDS011;53949;47.790;18.750;2022-11-20T01:16:37;28.10;;;11.20;;
67041;SDS011;53949;47.790;18.750;2022-11-20T01:19:44;29.45;;;11.88;;
67041;SDS011;53949;47.790;18.750;2022-11-20T01:22:47;30.40;;;12.45;;
67041;SDS011;53949;47.790;18.750;2022-11-20T01:25:51;37.17;;;12.70;;
67041;SDS011;53949;47.790;18.750;2022-11-20T01:28:54;29.95;;;13.25;;
67041;SDS011;53949;47.790;18.750;2022-11-20T01:31:58;32.22;;;12.75;;
67041;SDS011;53949;47.790;18.750;2022-11-20T01:35:01;29.08;;;11.90;;
67041;SDS011;53949;47.790;18.750;2022-11-20T01:38:04;33.00;;;12.45;;
67041;SDS011;53949;47.790;18.750;2022-11-20T01:41:07;33.47;;;15.13;;
67041;SDS011;53949;47.790;18.750;2022-11-20T01:44:12;38.42;;;13.13;;
67041;SDS011;53949;47.790;18.750;2022-11-20T01:47:20;29.25;;;14.13;;
67041;SDS011;53949;47.790;18.750;2022-11-20T01:50:28;31.37;;;14.02;;
67041;SDS011;53949;47.790;18.750;2022-11-20T01:53:32;29.58;;;13.27;;
67041;SDS011;53949;47.790;18.750;2022-11-20T01:56:38;33.08;;;13.43;;
67041;SDS011;53949;47.790;18.750;2022-11-20T01:59:47;32.35;;;14.30;;
67041;SDS011;53949;47.790;18.750;2022-11-20T02:02:57;35.20;;;14.55;;
67041;SDS011;53949;47.790;18.750;2022-11-20T02:06:04;33.83;;;14.02;;
67041;SDS011;53949;47.790;18.750;2022-11-20T02:09:10;31.15;;;12.85;;
67041;SDS011;53949;47.790;18.750;2022-11-20T02:12:14;31.12;;;12.98;;
67041;SDS011;53949;47.790;18.750;2022-11-20T02:15:37;31.27;;;13.18;;
67041;SDS011;53949;47.790;18.750;2022-11-20T02:18:41;30.42;;;13.43;;
67041;SDS011;53949;47.790;18.750;2022-11-20T02:22:00;28.52;;;11.57;;
67041;SDS011;53949;47.790;18.750;2022-11-20T02:25:16;29.67;;;13.25;;
67041;SDS011;53949;47.790;18.750;2022-11-20T02:28:21;29.90;;;12.32;;
67041;SDS011;53949;47.790;18.750;2022-11-20T02:31:24;33.85;;;13.40;;
67041;SDS011;53949;47.790;18.750;2022-11-20T02:34:28;32.17;;;13.00;;
67041;SDS011;53949;47.790;18.750;2022-11-20T02:37:32;37.13;;;13.38;;
67041;SDS011;53949;47.790;18.750;2022-11-20T02:40:36;33.80;;;13.48;;
67041;SDS011;53949;47.790;18.750;2022-11-20T02:43:39;28.92;;;12.23;;
67041;SDS011;53949;47.790;18.750;2022-11-20T02:46:42;33.97;;;12.65;;
67041;SDS011;53949;47.790;18.750;2022-11-20T02:49:45;31.30;;;12.60;;
67041;SDS011;53949;47.790;18.750;2022-11-20T02:52:48;28.23;;;12.82;;
67041;SDS011;53949;47.790;18.750;2022-11-20T02:55:51;30.95;;;12.35;;
67041;SDS011;53949;47.790;18.750;2022-11-20T02:58:55;28.70;;;12.35;;
67041;SDS011;53949;47.790;18.750;2022-11-20T03:01:58;27.52;;;12.48;;
67041;SDS011;53949;47.790;18.750;2022-11-20T03:05:01;29.08;;;12.65;;
67041;SDS011;53949;47.790;18.750;2022-11-20T03:08:04;26.83;;;11.93;;
67041;SDS011;53949;47.790;18.750;2022-11-20T03:11:07;27.25;;;11.32;;
67041;SDS011;53949;47.790;18.750;2022-11-20T03:14:12;31.52;;;12.35;;
67041;SDS011;53949;47.790;18.750;2022-11-20T03:17:16;27.40;;;12.15;;
67041;SDS011;53949;47.790;18.750;2022-11-20T03:20:19;28.35;;;12.07;;
67041;SDS011;53949;47.790;18.750;2022-11-20T03:23:22;30.37;;;13.15;;
67041;SDS011;53949;47.790;18.750;2022-11-20T03:26:25;26.30;;;11.63;;
67041;SDS011;53949;47.790;18.750;2022-11-20T03:29:29;26.08;;;11.40;;
67041;SDS011;53949;47.790;18.750;2022-11-20T03:32:32;25.98;;;10.68;;
67041;SDS011;53949;47.790;18.750;2022-11-20T03:35:35;26.95;;;11.32;;
67041;SDS011;53949;47.790;18.750;2022-11-20T03:38:39;26.50;;;11.30;;
67041;SDS011;53949;47.790;18.750;2022-11-20T03:41:42;27.65;;;11.93;;
67041;SDS011;53949;47.790;18.750;2022-11-20T03:44:46;24.77;;;11.70;;
67041;SDS011;53949;47.790;18.750;2022-11-20T03:47:48;25.62;;;10.85;;
67041;SDS011;53949;47.790;18.750;2022-11-20T03:50:52;27.33;;;11.10;;
67041;SDS011;53949;47.790;18.750;2022-11-20T03:53:56;23.33;;;10.98;;
67041;SDS011;53949;47.790;18.750;2022-11-20T03:57:01;23.70;;;10.60;;
67041;SDS011;53949;47.790;18.750;2022-11-20T04:00:05;23.12;;;10.93;;
67041;SDS011;53949;47.790;18.750;2022-11-20T04:03:10;22.00;;;10.05;;
67041;SDS011;53949;47.790;18.750;2022-11-20T04:06:14;19.17;;;9.38;;
67041;SDS011;53949;47.790;18.750;2022-11-20T04:09:21;23.42;;;10.52;;
67041;SDS011;53949;47.790;18.750;2022-11-20T04:12:24;22.30;;;9.35;;
67041;SDS011;53949;47.790;18.750;2022-11-20T04:15:28;22.50;;;10.13;;
67041;SDS011;53949;47.790;18.750;2022-11-20T04:18:35;20.83;;;10.73;;
67041;SDS011;53949;47.790;18.750;2022-11-20T04:21:39;24.95;;;11.52;;
67041;SDS011;53949;47.790;18.750;2022-11-20T04:24:42;25.75;;;11.48;;
67041;SDS011;53949;47.790;18.750;2022-11-20T04:27:45;30.00;;;13.35;;
67041;SDS011;53949;47.790;18.750;2022-11-20T04:30:48;28.58;;;12.43;;
67041;SDS011;53949;47.790;18.750;2022-11-20T04:33:51;25.42;;;11.18;;
67041;SDS011;53949;47.790;18.750;2022-11-20T04:36:54;31.73;;;12.32;;
67041;SDS011;53949;47.790;18.750;2022-11-20T04:39:57;26.08;;;11.40;;
67041;SDS011;53949;47.790;18.750;2022-11-20T04:43:00;24.17;;;11.32;;
67041;SDS011;53949;47.790;18.750;2022-11-20T04:46:04;25.85;;;11.12;;
67041;SDS011;53949;47.790;18.750;2022-11-20T04:49:07;27.90;;;11.70;;
67041;SDS011;53949;47.790;18.750;2022-11-20T04:52:11;28.55;;;11.77;;
67041;SDS011;53949;47.790;18.750;2022-11-20T04:55:14;24.20;;;10.88;;
67041;SDS011;53949;47.790;18.750;2022-11-20T04:58:17;26.62;;;11.90;;
67041;SDS011;53949;47.790;18.750;2022-11-20T05:01:21;29.23;;;11.93;;
67041;SDS011;53949;47.790;18.750;2022-11-20T05:04:25;22.80;;;11.30;;
67041;SDS011;53949;47.790;18.750;2022-11-20T05:07:28;22.42;;;10.32;;
67041;SDS011;53949;47.790;18.750;2022-11-20T05:10:32;22.50;;;10.75;;
67041;SDS011;53949;47.790;18.750;2022-11-20T05:13:35;24.08;;;11.52;;
67041;SDS011;53949;47.790;18.750;2022-11-20T05:16:38;26.40;;;10.20;;
67041;SDS011;53949;47.790;18.750;2022-11-20T05:19:41;25.45;;;12.02;;
67041;SDS011;53949;47.790;18.750;2022-11-20T05:22:45;24.12;;;11.43;;
67041;SDS011;53949;47.790;18.750;2022-11-20T05:25:48;29.37;;;13.10;;
67041;SDS011;53949;47.790;18.750;2022-11-20T05:28:57;23.90;;;11.02;;
67041;SDS011;53949;47.790;18.750;2022-11-20T05:32:00;23.80;;;10.98;;
67041;SDS011;53949;47.790;18.750;2022-11-20T05:35:03;23.92;;;10.98;;
67041;SDS011;53949;47.790;18.750;2022-11-20T05:38:07;31.02;;;12.07;;
67041;SDS011;53949;47.790;18.750;2022-11-20T05:41:17;23.90;;;10.75;;
67041;SDS011;53949;47.790;18.750;2022-11-20T05:44:21;23.05;;;10.45;;
67041;SDS011;53949;47.790;18.750;2022-11-20T05:47:24;21.95;;;9.88;;
67041;SDS011;53949;47.790;18.750;2022-11-20T05:50:29;25.27;;;10.32;;
67041;SDS011;53949;47.790;18.750;2022-11-20T05:53:33;23.00;;;9.95;;
67041;SDS011;53949;47.790;18.750;2022-11-20T05:56:37;23.27;;;9.88;;
67041;SDS011;53949;47.790;18.750;2022-11-20T05:59:42;21.37;;;10.13;;
67041;SDS011;53949;47.790;18.750;2022-11-20T06:02:44;24.25;;;10.88;;
67041;SDS011;53949;47.790;18.750;2022-11-20T06:05:48;22.60;;;10.18;;
67041;SDS011;53949;47.790;18.750;2022-11-20T06:08:51;25.40;;;11.15;;
67041;SDS011;53949;47.790;18.750;2022-11-20T06:11:54;22.35;;;11.43;;
67041;SDS011;53949;47.790;18.750;2022-11-20T06:14:58;26.27;;;11.45;;
67041;SDS011;53949;47.790;18.750;2022-11-20T06:18:02;26.73;;;12.07;;
67041;SDS011;53949;47.790;18.750;2022-11-20T06:24:10;26.37;;;11.68;;
67041;SDS011;53949;47.790;18.750;2022-11-20T06:27:13;28.67;;;12.75;;
67041;SDS011;53949;47.790;18.750;2022-11-20T06:30:16;27.13;;;12.52;;
67041;SDS011;53949;47.790;18.750;2022-11-20T06:33:19;26.70;;;12.25;;
67041;SDS011;53949;47.790;18.750;2022-11-20T06:36:23;25.75;;;12.37;;
67041;SDS011;53949;47.790;18.750;2022-11-20T06:39:26;28.45;;;12.57;;
67041;SDS011;53949;47.790;18.750;2022-11-20T06:42:29;24.58;;;11.40;;
67041;SDS011;53949;47.790;18.750;2022-11-20T06:45:32;26.60;;;12.25;;
67041;SDS011;53949;47.790;18.750;2022-11-20T06:48:35;22.80;;;11.12;;
67041;SDS011;53949;47.790;18.750;2022-11-20T06:51:38;25.15;;;12.00;;
67041;SDS011;53949;47.790;18.750;2022-11-20T06:54:41;26.48;;;12.20;;
67041;SDS011;53949;47.790;18.750;2022-11-20T06:57:45;26.70;;;11.02;;
67041;SDS011;53949;47.790;18.750;2022-11-20T07:00:52;21.33;;;10.73;;
67041;SDS011;53949;47.790;18.750;2022-11-20T07:03:55;26.75;;;12.65;;
67041;SDS011;53949;47.790;18.750;2022-11-20T07:06:58;27.45;;;13.70;;
67041;SDS011;53949;47.790;18.750;2022-11-20T07:10:01;33.33;;;13.27;;
67041;SDS011;53949;47.790;18.750;2022-11-20T07:13:04;54.20;;;21.73;;
67041;SDS011;53949;47.790;18.750;2022-11-20T07:16:07;27.60;;;13.48;;
67041;SDS011;53949;47.790;18.750;2022-11-20T07:19:11;28.35;;;13.38;;
67041;SDS011;53949;47.790;18.750;2022-11-20T07:22:14;28.42;;;12.07;;
67041;SDS011;53949;47.790;18.750;2022-11-20T07:25:17;31.33;;;12.93;;
67041;SDS011;53949;47.790;18.750;2022-11-20T07:28:20;40.83;;;18.23;;
67041;SDS011;53949;47.790;18.750;2022-11-20T07:31:24;32.45;;;14.10;;
67041;SDS011;53949;47.790;18.750;2022-11-20T07:34:27;29.77;;;14.80;;
67041;SDS011;53949;47.790;18.750;2022-11-20T07:37:30;29.00;;;13.80;;
67041;SDS011;53949;47.790;18.750;2022-11-20T07:40:33;39.47;;;14.85;;
67041;SDS011;53949;47.790;18.750;2022-11-20T07:43:36;30.67;;;14.65;;
67041;SDS011;53949;47.790;18.750;2022-11-20T07:46:43;30.60;;;14.38;;
67041;SDS011;53949;47.790;18.750;2022-11-20T07:49:46;28.83;;;14.05;;
67041;SDS011;53949;47.790;18.750;2022-11-20T07:52:49;33.15;;;15.00;;
67041;SDS011;53949;47.790;18.750;2022-11-20T07:55:53;34.60;;;14.70;;
67041;SDS011;53949;47.790;18.750;2022-11-20T07:58:56;34.83;;;14.63;;
67041;SDS011;53949;47.790;18.750;2022-11-20T08:01:59;32.30;;;13.45;;
67041;SDS011;53949;47.790;18.750;2022-11-20T08:05:02;26.05;;;13.15;;
67041;SDS011;53949;47.790;18.750;2022-11-20T08:08:07;27.70;;;12.40;;
67041;SDS011;53949;47.790;18.750;2022-11-20T08:11:11;30.20;;;13.65;;
67041;SDS011;53949;47.790;18.750;2022-11-20T08:14:33;35.80;;;15.90;;
67041;SDS011;53949;47.790;18.750;2022-11-20T08:17:36;34.72;;;16.02;;
67041;SDS011;53949;47.790;18.750;2022-11-20T08:20:39;38.45;;;16.65;;
67041;SDS011;53949;47.790;18.750;2022-11-20T08:23:42;44.90;;;19.35;;
67041;SDS011;53949;47.790;18.750;2022-11-20T08:26:45;33.28;;;15.63;;
67041;SDS011;53949;47.790;18.750;2022-11-20T08:29:49;33.67;;;15.30;;
67041;SDS011;53949;47.790;18.750;2022-11-20T08:32:52;31.25;;;14.75;;
67041;SDS011;53949;47.790;18.750;2022-11-20T08:36:00;32.55;;;14.20;;
67041;SDS011;53949;47.790;18.750;2022-11-20T08:39:03;36.35;;;15.55;;
67041;SDS011;53949;47.790;18.750;2022-11-20T08:42:08;32.03;;;13.65;;
67041;SDS011;53949;47.790;18.750;2022-11-20T08:45:11;31.65;;;13.70;;
67041;SDS011;53949;47.790;18.750;2022-11-20T08:48:14;29.63;;;14.68;;
67041;SDS011;53949;47.790;18.750;2022-11-20T08:51:17;27.65;;;12.88;;
67041;SDS011;53949;47.790;18.750;2022-11-20T08:54:21;25.17;;;11.57;;
67041;SDS011;53949;47.790;18.750;2022-11-20T08:57:25;26.73;;;12.45;;
67041;SDS011;53949;47.790;18.750;2022-11-20T09:00:28;30.27;;;13.27;;
67041;SDS011;53949;47.790;18.750;2022-11-20T09:03:31;31.83;;;13.13;;
67041;SDS011;53949;47.790;18.750;2022-11-20T09:06:34;26.23;;;12.37;;
67041;SDS011;53949;47.790;18.750;2022-11-20T09:09:37;27.30;;;11.75;;
67041;SDS011;53949;47.790;18.750;2022-11-20T09:12:40;31.23;;;13.57;;
67041;SDS011;53949;47.790;18.750;2022-11-20T09:15:43;28.15;;;13.23;;
67041;SDS011;53949;47.790;18.750;2022-11-20T09:18:49;30.27;;;13.70;;
67041;SDS011;53949;47.790;18.750;2022-11-20T09:22:12;26.45;;;12.65;;
67041;SDS011;53949;47.790;18.750;2022-11-20T09:25:15;32.45;;;12.45;;
67041;SDS011;53949;47.790;18.750;2022-11-20T09:28:18;24.50;;;11.88;;
67041;SDS011;53949;47.790;18.750;2022-11-20T09:31:22;26.98;;;12.73;;
67041;SDS011;53949;47.790;18.750;2022-11-20T09:34:26;27.90;;;13.07;;
67041;SDS011;53949;47.790;18.750;2022-11-20T09:37:29;31.00;;;13.70;;
67041;SDS011;53949;47.790;18.750;2022-11-20T09:40:33;32.47;;;13.85;;
67041;SDS011;53949;47.790;18.750;2022-11-20T09:47:08;29.37;;;12.45;;
67041;SDS011;53949;47.790;18.750;2022-11-20T09:50:23;27.50;;;12.95;;
67041;SDS011;53949;47.790;18.750;2022-11-20T09:57:00;31.02;;;14.35;;
67041;SDS011;53949;47.790;18.750;2022-11-20T10:00:08;24.48;;;13.23;;
67041;SDS011;53949;47.790;18.750;2022-11-20T10:03:26;26.73;;;13.88;;
67041;SDS011;53949;47.790;18.750;2022-11-20T10:06:39;32.08;;;14.23;;
67041;SDS011;53949;47.790;18.750;2022-11-20T10:10:01;29.95;;;13.90;;
67041;SDS011;53949;47.790;18.750;2022-11-20T10:16:26;26.87;;;13.38;;
67041;SDS011;53949;47.790;18.750;2022-11-20T10:26:39;31.65;;;14.38;;
67041;SDS011;53949;47.790;18.750;2022-11-20T10:29:49;30.05;;;12.10;;
67041;SDS011;53949;47.790;18.750;2022-11-20T10:42:51;33.03;;;15.02;;
67041;SDS011;53949;47.790;18.750;2022-11-20T10:46:00;29.92;;;14.52;;
67041;SDS011;53949;47.790;18.750;2022-11-20T10:49:11;32.70;;;15.05;;
67041;SDS011;53949;47.790;18.750;2022-11-20T10:55:46;28.17;;;12.85;;
67041;SDS011;53949;47.790;18.750;2022-11-20T11:02:47;27.58;;;12.88;;
67041;SDS011;53949;47.790;18.750;2022-11-20T11:09:47;28.52;;;13.55;;
67041;SDS011;53949;47.790;18.750;2022-11-20T11:12:52;25.10;;;13.40;;
67041;SDS011;53949;47.790;18.750;2022-11-20T11:15:55;25.83;;;12.20;;
67041;SDS011;53949;47.790;18.750;2022-11-20T11:22:11;26.67;;;12.95;;
67041;SDS011;53949;47.790;18.750;2022-11-20T11:25:29;25.75;;;11.93;;
67041;SDS011;53949;47.790;18.750;2022-11-20T11:28:36;27.85;;;13.13;;
67041;SDS011;53949;47.790;18.750;2022-11-20T11:31:39;27.92;;;13.77;;
67041;SDS011;53949;47.790;18.750;2022-11-20T11:34:42;24.40;;;12.90;;
67041;SDS011;53949;47.790;18.750;2022-11-20T11:37:45;28.20;;;12.75;;
67041;SDS011;53949;47.790;18.750;2022-11-20T11:40:54;24.80;;;13.05;;
67041;SDS011;53949;47.790;18.750;2022-11-20T11:44:00;26.45;;;13.50;;
67041;SDS011;53949;47.790;18.750;2022-11-20T11:47:31;27.27;;;13.85;;
67041;SDS011;53949;47.790;18.750;2022-11-20T11:50:36;23.45;;;12.32;;
67041;SDS011;53949;47.790;18.750;2022-11-20T11:53:40;29.35;;;13.93;;
67041;SDS011;53949;47.790;18.750;2022-11-20T11:56:44;24.00;;;12.65;;
67041;SDS011;53949;47.790;18.750;2022-11-20T12:00:05;30.92;;;14.23;;
67041;SDS011;53949;47.790;18.750;2022-11-20T12:06:51;26.52;;;13.65;;
67041;SDS011;53949;47.790;18.750;2022-11-20T12:09:57;27.70;;;13.45;;
67041;SDS011;53949;47.790;18.750;2022-11-20T12:13:04;26.73;;;13.45;;
67041;SDS011;53949;47.790;18.750;2022-11-20T12:16:17;31.10;;;15.52;;
67041;SDS011;53949;47.790;18.750;2022-11-20T12:19:21;27.73;;;14.13;;
67041;SDS011;53949;47.790;18.750;2022-11-20T12:25:55;27.83;;;13.88;;
67041;SDS011;53949;47.790;18.750;2022-11-20T12:29:47;30.90;;;14.27;;
67041;SDS011;53949;47.790;18.750;2022-11-20T12:36:33;29.80;;;13.75;;
67041;SDS011;53949;47.790;18.750;2022-11-20T12:39:35;30.27;;;14.60;;
67041;SDS011;53949;47.790;18.750;2022-11-20T12:49:34;26.67;;;13.50;;
67041;SDS011;53949;47.790;18.750;2022-11-20T12:56:35;30.58;;;14.73;;
67041;SDS011;53949;47.790;18.750;2022-11-20T13:06:28;29.97;;;14.93;;
67041;SDS011;53949;47.790;18.750;2022-11-20T13:09:32;31.92;;;14.80;;
67041;SDS011;53949;47.790;18.750;2022-11-20T13:12:40;33.33;;;16.08;;
67041;SDS011;53949;47.790;18.750;2022-11-20T13:19:00;37.90;;;16.08;;
67041;SDS011;53949;47.790;18.750;2022-11-20T13:22:08;26.23;;;13.07;;
67041;SDS011;53949;47.790;18.750;2022-11-20T13:25:28;36.38;;;15.75;;
67041;SDS011;53949;47.790;18.750;2022-11-20T13:28:37;34.40;;;15.97;;
67041;SDS011;53949;47.790;18.750;2022-11-20T13:31:41;31.73;;;15.48;;
67041;SDS011;53949;47.790;18.750;2022-11-20T13:34:57;34.65;;;16.73;;
67041;SDS011;53949;47.790;18.750;2022-11-20T13:38:10;31.70;;;14.32;;
67041;SDS011;53949;47.790;18.750;2022-11-20T13:41:53;29.70;;;14.48;;
67041;SDS011;53949;47.790;18.750;2022-11-20T13:44:53;30.65;;;15.10;;
67041;SDS011;53949;47.790;18.750;2022-11-20T13:48:02;31.92;;;15.50;;
67041;SDS011;53949;47.790;18.750;2022-11-20T13:57:53;35.47;;;16.70;;
67041;SDS011;53949;47.790;18.750;2022-11-20T14:01:08;34.55;;;16.42;;
67041;SDS011;53949;47.790;18.750;2022-11-20T14:04:18;35.33;;;15.15;;
67041;SDS011;53949;47.790;18.750;2022-11-20T14:07:25;33.33;;;17.30;;
67041;SDS011;53949;47.790;18.750;2022-11-20T14:10:35;32.97;;;17.52;;
67041;SDS011;53949;47.790;18.750;2022-11-20T14:20:28;34.50;;;16.45;;
67041;SDS011;53949;47.790;18.750;2022-11-20T14:23:35;28.58;;;15.38;;
67041;SDS011;53949;47.790;18.750;2022-11-20T14:26:45;33.95;;;15.40;;
67041;SDS011;53949;47.790;18.750;2022-11-20T14:29:49;31.15;;;15.70;;
67041;SDS011;53949;47.790;18.750;2022-11-20T14:32:54;28.83;;;14.73;;
67041;SDS011;53949;47.790;18.750;2022-11-20T14:35:59;29.58;;;14.32;;
67041;SDS011;53949;47.790;18.750;2022-11-20T14:39:03;31.90;;;15.50;;
67041;SDS011;53949;47.790;18.750;2022-11-20T14:45:40;31.77;;;15.43;;
67041;SDS011;53949;47.790;18.750;2022-11-20T14:48:46;32.70;;;15.52;;
67041;SDS011;53949;47.790;18.750;2022-11-20T14:51:58;34.03;;;16.50;;
67041;SDS011;53949;47.790;18.750;2022-11-20T14:55:03;31.17;;;15.45;;
67041;SDS011;53949;47.790;18.750;2022-11-20T14:58:28;31.70;;;15.20;;
67041;SDS011;53949;47.790;18.750;2022-11-20T15:01:32;35.57;;;15.23;;
67041;SDS011;53949;47.790;18.750;2022-11-20T15:04:49;30.73;;;15.30;;
67041;SDS011;53949;47.790;18.750;2022-11-20T15:08:15;35.42;;;15.52;;
67041;SDS011;53949;47.790;18.750;2022-11-20T15:11:18;43.33;;;18.33;;
67041;SDS011;53949;47.790;18.750;2022-11-20T15:14:24;39.75;;;18.52;;
67041;SDS011;53949;47.790;18.750;2022-11-20T15:17:28;37.63;;;16.90;;
67041;SDS011;53949;47.790;18.750;2022-11-20T15:23:36;37.10;;;16.95;;
67041;SDS011;53949;47.790;18.750;2022-11-20T15:26:40;36.33;;;17.10;;
67041;SDS011;53949;47.790;18.750;2022-11-20T15:29:43;40.40;;;18.23;;
67041;SDS011;53949;47.790;18.750;2022-11-20T15:32:46;36.42;;;16.35;;
67041;SDS011;53949;47.790;18.750;2022-11-20T15:35:50;42.60;;;18.10;;
67041;SDS011;53949;47.790;18.750;2022-11-20T15:38:54;44.08;;;18.67;;
67041;SDS011;53949;47.790;18.750;2022-11-20T15:41:57;39.85;;;18.87;;
67041;SDS011;53949;47.790;18.750;2022-11-20T15:45:01;32.88;;;16.45;;
67041;SDS011;53949;47.790;18.750;2022-11-20T15:48:08;36.67;;;17.15;;
67041;SDS011;53949;47.790;18.750;2022-11-20T15:54:19;46.70;;;19.08;;
67041;SDS011;53949;47.790;18.750;2022-11-20T15:57:24;41.35;;;20.23;;
67041;SDS011;53949;47.790;18.750;2022-11-20T16:00:30;38.25;;;18.62;;
67041;SDS011;53949;47.790;18.750;2022-11-20T16:03:35;45.47;;;22.42;;
67041;SDS011;53949;47.790;18.750;2022-11-20T16:06:38;40.27;;;18.80;;
67041;SDS011;53949;47.790;18.750;2022-11-20T16:09:42;41.25;;;18.30;;
67041;SDS011;53949;47.790;18.750;2022-11-20T16:12:45;44.97;;;19.75;;
67041;SDS011;53949;47.790;18.750;2022-11-20T16:16:11;55.08;;;22.37;;
67041;SDS011;53949;47.790;18.750;2022-11-20T16:19:22;52.92;;;23.62;;
67041;SDS011;53949;47.790;18.750;2022-11-20T16:22:25;50.50;;;23.05;;
67041;SDS011;53949;47.790;18.750;2022-11-20T16:25:29;48.17;;;20.98;;
67041;SDS011;53949;47.790;18.750;2022-11-20T16:28:32;39.90;;;17.83;;
67041;SDS011;53949;47.790;18.750;2022-11-20T16:31:37;42.65;;;18.02;;
67041;SDS011;53949;47.790;18.750;2022-11-20T16:34:41;39.10;;;18.95;;
67041;SDS011;53949;47.790;18.750;2022-11-20T16:37:45;45.58;;;19.87;;
67041;SDS011;53949;47.790;18.750;2022-11-20T16:40:48;36.83;;;17.55;;
67041;SDS011;53949;47.790;18.750;2022-11-20T16:43:57;39.35;;;17.33;;
67041;SDS011;53949;47.790;18.750;2022-11-20T16:47:02;37.42;;;17.52;;
67041;SDS011;53949;47.790;18.750;2022-11-20T16:50:06;35.67;;;16.65;;
67041;SDS011;53949;47.790;18.750;2022-11-20T16:53:09;46.88;;;18.95;;
67041;SDS011;53949;47.790;18.750;2022-11-20T16:56:13;42.22;;;19.17;;
67041;SDS011;53949;47.790;18.750;2022-11-20T16:59:21;42.13;;;17.70;;
67041;SDS011;53949;47.790;18.750;2022-11-20T17:02:24;39.25;;;17.52;;
67041;SDS011;53949;47.790;18.750;2022-11-20T17:05:29;44.10;;;18.92;;
67041;SDS011;53949;47.790;18.750;2022-11-20T17:08:33;54.22;;;21.80;;
67041;SDS011;53949;47.790;18.750;2022-11-20T17:11:37;45.38;;;19.25;;
67041;SDS011;53949;47.790;18.750;2022-11-20T17:14:49;44.35;;;17.83;;
67041;SDS011;53949;47.790;18.750;2022-11-20T17:17:53;35.15;;;16.17;;
67041;SDS011;53949;47.790;18.750;2022-11-20T17:20:56;39.53;;;18.83;;
67041;SDS011;53949;47.790;18.750;2022-11-20T17:24:03;40.65;;;17.70;;
67041;SDS011;53949;47.790;18.750;2022-11-20T17:27:08;44.10;;;17.12;;
67041;SDS011;53949;47.790;18.750;2022-11-20T17:30:13;37.17;;;16.67;;
67041;SDS011;53949;47.790;18.750;2022-11-20T17:33:16;36.05;;;15.98;;
67041;SDS011;53949;47.790;18.750;2022-11-20T17:36:21;41.53;;;16.10;;
67041;SDS011;53949;47.790;18.750;2022-11-20T17:39:25;42.22;;;15.75;;
67041;SDS011;53949;47.790;18.750;2022-11-20T17:42:28;33.97;;;14.87;;
67041;SDS011;53949;47.790;18.750;2022-11-20T17:45:38;34.17;;;15.43;;
67041;SDS011;53949;47.790;18.750;2022-11-20T17:48:43;36.67;;;15.02;;
67041;SDS011;53949;47.790;18.750;2022-11-20T17:54:51;33.40;;;14.52;;
67041;SDS011;53949;47.790;18.750;2022-11-20T17:57:58;34.58;;;14.52;;
67041;SDS011;53949;47.790;18.750;2022-11-20T18:01:05;35.53;;;16.33;;
67041;SDS011;53949;47.790;18.750;2022-11-20T18:04:10;40.45;;;16.55;;
67041;SDS011;53949;47.790;18.750;2022-11-20T18:10:19;40.17;;;15.15;;
67041;SDS011;53949;47.790;18.750;2022-11-20T18:13:22;38.83;;;15.43;;
67041;SDS011;53949;47.790;18.750;2022-11-20T18:16:50;40.05;;;16.25;;
67041;SDS011;53949;47.790;18.750;2022-11-20T18:19:55;34.22;;;15.82;;
67041;SDS011;53949;47.790;18.750;2022-11-20T18:23:19;39.15;;;16.35;;
67041;SDS011;53949;47.790;18.750;2022-11-20T18:26:23;42.95;;;17.25;;
67041;SDS011;53949;47.790;18.750;2022-11-20T18:29:29;40.97;;;17.00;;
67041;SDS011;53949;47.790;18.750;2022-11-20T18:32:34;38.50;;;16.43;;
67041;SDS011;53949;47.790;18.750;2022-11-20T18:35:40;41.05;;;16.20;;
67041;SDS011;53949;47.790;18.750;2022-11-20T18:38:48;35.37;;;15.63;;
67041;SDS011;53949;47.790;18.750;2022-11-20T18:41:53;37.15;;;16.17;;
67041;SDS011;53949;47.790;18.750;2022-11-20T18:45:15;39.25;;;15.98;;
67041;SDS011;53949;47.790;18.750;2022-11-20T18:48:20;34.60;;;15.68;;
67041;SDS011;53949;47.790;18.750;2022-11-20T18:51:23;35.75;;;14.82;;
67041;SDS011;53949;47.790;18.750;2022-11-20T18:54:30;40.40;;;17.98;;
67041;SDS011;53949;47.790;18.750;2022-11-20T18:57:34;35.03;;;15.38;;
67041;SDS011;53949;47.790;18.750;2022-11-20T19:00:37;37.58;;;14.38;;
67041;SDS011;53949;47.790;18.750;2022-11-20T19:06:47;40.12;;;16.77;;
67041;SDS011;53949;47.790;18.750;2022-11-20T19:09:59;39.22;;;16.40;;
67041;SDS011;53949;47.790;18.750;2022-11-20T19:13:06;35.05;;;15.52;;
67041;SDS011;53949;47.790;18.750;2022-11-20T19:16:14;41.15;;;18.80;;
67041;SDS011;53949;47.790;18.750;2022-11-20T19:19:24;40.38;;;17.83;;
67041;SDS011;53949;47.790;18.750;2022-11-20T19:22:29;36.10;;;16.77;;
67041;SDS011;53949;47.790;18.750;2022-11-20T19:25:32;44.65;;;17.48;;
67041;SDS011;53949;47.790;18.750;2022-11-20T19:28:39;40.05;;;16.62;;
67041;SDS011;53949;47.790;18.750;2022-11-20T19:31:43;39.67;;;16.40;;
67041;SDS011;53949;47.790;18.750;2022-11-20T19:34:47;38.75;;;16.42;;
67041;SDS011;53949;47.790;18.750;2022-11-20T19:37:51;41.35;;;17.33;;
67041;SDS011;53949;47.790;18.750;2022-11-20T19:40:54;42.33;;;16.73;;